Time;durP1;ratioP1;P1;durP2;ratioP2;P2;SDS_P1;SDS_P2;PMS_P1;PMS_P2;Temp;Humidity;BMP_temperature;BMP_pressure;BME280_temperature;BME280_humidity;BME280_pressure;Samples;Min_cycle;Max_cycle;Signal;HPM_P1;HPM_P2
2022/10/10 00:00:23;;;;;;;4.03;2.20;;;9.30;99.90;;;;;;5057071;28;20546;-71
2022/10/10 00:02:49;;;;;;;5.60;2.50;;;9.30;99.90;;;;;;5056510;28;20096;-71
2022/10/10 00:05:15;;;;;;;5.10;2.05;;;9.20;99.90;;;;;;5055972;28;20465;-71
2022/10/10 00:07:41;;;;;;;3.30;1.83;;;9.20;99.90;;;;;;5055605;28;20061;-71
2022/10/10 00:10:07;;;;;;;2.83;2.30;;;9.20;99.90;;;;;;5056993;28;20112;-71
2022/10/10 00:12:32;;;;;;;4.60;2.38;;;9.10;99.90;;;;;;5056225;28;20055;-71
2022/10/10 00:14:58;;;;;;;3.15;1.88;;;9.40;99.90;;;;;;5039398;28;20051;-71
2022/10/10 00:17:23;;;;;;;4.25;2.28;;;9.10;99.90;;;;;;5056593;28;20052;-72
2022/10/10 00:19:49;;;;;;;2.72;2.20;;;9.30;99.90;;;;;;5056154;28;20127;-71
2022/10/10 00:22:15;;;;;;;4.45;2.50;;;9.00;99.90;;;;;;5038971;28;20455;-72
2022/10/10 00:24:41;;;;;;;5.05;2.63;;;9.20;99.90;;;;;;5056162;28;20060;-71
2022/10/10 00:27:06;;;;;;;2.70;2.03;;;9.00;99.90;;;;;;5022619;28;20045;-72
2022/10/10 00:29:32;;;;;;;3.35;2.00;;;9.00;99.90;;;;;;5055610;28;20083;-71
2022/10/10 00:31:58;;;;;;;4.60;2.30;;;9.00;99.90;;;;;;5055928;28;20048;-72
2022/10/10 00:34:23;;;;;;;4.00;2.05;;;9.00;99.90;;;;;;5056646;28;20045;-71
2022/10/10 00:36:49;;;;;;;3.40;1.95;;;8.90;99.90;;;;;;5056039;28;20141;-71
2022/10/10 00:39:15;;;;;;;3.53;2.20;;;8.90;99.90;;;;;;5056462;28;20546;-71
2022/10/10 00:41:40;;;;;;;3.72;2.30;;;8.90;99.90;;;;;;5056282;28;20045;-71
2022/10/10 00:44:14;;;;;;;3.05;2.47;;;9.10;99.90;;;;;;5056436;28;20040;-71
2022/10/10 00:46:40;;;;;;;3.47;1.85;;;8.80;99.90;;;;;;5055083;28;20127;-71
2022/10/10 00:49:14;;;;;;;3.88;2.30;;;8.80;99.90;;;;;;5054928;28;20037;-71
2022/10/10 00:51:42;;;;;;;5.93;2.20;;;9.40;99.90;;;;;;5056273;28;20203;-71
2022/10/10 00:54:10;;;;;;;3.67;2.40;;;8.90;99.90;;;;;;5071834;28;20053;-71
2022/10/10 00:56:43;;;;;;;2.65;2.38;;;8.80;99.90;;;;;;5056180;28;20063;-71
2022/10/10 00:59:11;;;;;;;2.75;2.22;;;8.80;99.90;;;;;;5055981;28;20044;-71
2022/10/10 01:01:38;;;;;;;3.65;1.85;;;8.80;99.90;;;;;;5055091;28;20037;-76
2022/10/10 01:04:04;;;;;;;4.68;1.83;;;8.80;99.90;;;;;;5055517;28;20041;-71
2022/10/10 01:06:31;;;;;;;3.97;2.10;;;9.00;99.90;;;;;;5054458;28;20076;-71
2022/10/10 01:08:56;;;;;;;4.70;2.20;;;8.70;99.90;;;;;;5054675;28;20071;-71
2022/10/10 01:11:34;;;;;;;3.28;2.00;;;8.80;99.90;;;;;;5071370;28;20041;-71
2022/10/10 01:14:03;;;;;;;5.18;2.10;;;8.80;99.90;;;;;;5055924;28;20112;-71
2022/10/10 01:16:45;;;;;;;3.75;2.45;;;8.80;99.90;;;;;;5054861;28;20064;-71
2022/10/10 01:19:43;;;;;;;3.35;1.80;;;8.80;99.90;;;;;;5055977;28;20388;-71
2022/10/10 01:22:20;;;;;;;4.65;1.88;;;8.70;99.90;;;;;;5054234;28;20053;-72
2022/10/10 01:24:55;;;;;;;5.97;2.10;;;8.80;99.90;;;;;;5055648;28;20136;-72
2022/10/10 01:27:51;;;;;;;4.25;2.15;;;9.00;99.90;;;;;;5055489;28;20512;-71
2022/10/10 01:30:21;;;;;;;3.20;2.05;;;8.80;99.90;;;;;;5052950;28;20064;-72
2022/10/10 01:32:50;;;;;;;3.67;2.05;;;8.80;99.90;;;;;;5055307;28;20135;-71
2022/10/10 01:35:38;;;;;;;5.57;2.17;;;8.80;99.90;;;;;;5054375;28;20131;-71
2022/10/10 01:38:29;;;;;;;2.92;1.92;;;8.80;99.90;;;;;;5054472;28;20043;-71
2022/10/10 01:41:07;;;;;;;4.97;1.90;;;8.70;99.90;;;;;;5070771;28;20552;-71
2022/10/10 01:43:34;;;;;;;3.83;2.25;;;8.70;99.90;;;;;;5055309;28;20057;-71
2022/10/10 01:46:12;;;;;;;3.83;2.25;;;8.80;99.90;;;;;;5054329;28;20088;-71
2022/10/10 01:48:38;;;;;;;5.00;2.20;;;8.90;99.90;;;;;;5055185;28;20049;-72
2022/10/10 01:51:22;;;;;;;3.88;2.03;;;8.80;99.90;;;;;;5055031;28;20041;-72
2022/10/10 01:54:15;;;;;;;3.03;1.90;;;8.80;99.90;;;;;;5054146;28;20508;-71
2022/10/10 01:57:07;;;;;;;5.43;2.45;;;8.70;99.90;;;;;;5055095;28;20051;-72
2022/10/10 02:00:00;;;;;;;5.13;2.65;;;8.90;99.90;;;;;;5054305;28;20049;-72
2022/10/10 02:02:48;;;;;;;3.85;2.00;;;8.50;99.90;;;;;;5053741;28;20131;-71
2022/10/10 02:05:52;;;;;;;3.60;2.20;;;8.60;99.90;;;;;;5037420;28;20102;-71
2022/10/10 02:08:44;;;;;;;4.68;2.65;;;8.60;99.90;;;;;;5032243;28;20052;-71
2022/10/10 02:11:11;;;;;;;4.38;2.22;;;8.60;99.90;;;;;;5053302;28;20198;-71
2022/10/10 02:13:53;;;;;;;2.88;2.08;;;8.90;99.90;;;;;;5036983;28;20048;-71
2022/10/10 02:16:27;;;;;;;3.15;2.10;;;8.50;99.90;;;;;;5054578;28;20061;-71
2022/10/10 02:18:56;;;;;;;4.18;2.30;;;8.60;99.90;;;;;;5054642;28;20048;-71
2022/10/10 02:21:23;;;;;;;3.97;2.63;;;9.10;99.90;;;;;;5036973;28;20057;-71
2022/10/10 02:23:51;;;;;;;4.75;2.20;;;8.70;99.90;;;;;;5053744;28;20071;-71
2022/10/10 02:26:20;;;;;;;3.97;2.13;;;8.70;99.90;;;;;;5053188;28;20468;-71
2022/10/10 02:29:03;;;;;;;3.85;1.80;;;8.80;99.90;;;;;;5054052;28;20099;-71
2022/10/10 02:31:45;;;;;;;3.97;2.10;;;8.60;99.90;;;;;;5054820;28;20432;-71
2022/10/10 02:34:16;;;;;;;3.70;2.25;;;8.60;99.90;;;;;;5054234;28;20052;-71
2022/10/10 02:36:45;;;;;;;2.63;2.10;;;8.80;99.90;;;;;;5053183;28;20045;-71
2022/10/10 02:39:12;;;;;;;3.17;2.13;;;8.70;99.90;;;;;;5053841;28;20048;-72
2022/10/10 02:41:40;;;;;;;4.70;2.25;;;9.00;99.90;;;;;;5054331;28;20053;-72
2022/10/10 02:44:05;;;;;;;3.92;1.95;;;8.80;99.90;;;;;;5052935;28;20044;-71
2022/10/10 02:46:31;;;;;;;3.50;2.10;;;8.80;99.90;;;;;;5053206;28;20040;-71
2022/10/10 02:49:00;;;;;;;2.85;1.70;;;8.80;99.90;;;;;;5053834;28;20044;-71
2022/10/10 02:51:25;;;;;;;5.30;2.35;;;9.00;99.90;;;;;;5053867;28;20051;-71
2022/10/10 02:53:51;;;;;;;4.15;2.03;;;8.90;99.90;;;;;;5052723;28;20044;-71
2022/10/10 02:56:17;;;;;;;4.63;2.42;;;8.50;99.90;;;;;;5054159;28;20056;-71
2022/10/10 02:58:43;;;;;;;4.63;2.40;;;8.60;99.90;;;;;;5052670;28;20048;-71
2022/10/10 03:01:09;;;;;;;3.42;2.60;;;8.70;99.90;;;;;;5052633;28;20097;-71
2022/10/10 03:03:35;;;;;;;4.60;2.28;;;8.60;99.90;;;;;;5052233;28;20049;-71
2022/10/10 03:06:01;;;;;;;3.92;2.33;;;8.70;99.90;;;;;;5052366;28;20444;-71
2022/10/10 03:08:27;;;;;;;3.78;2.28;;;8.60;99.90;;;;;;5068616;28;20057;-71
2022/10/10 03:10:58;;;;;;;2.67;2.20;;;8.60;99.90;;;;;;5069156;28;20053;-71
2022/10/10 03:13:24;;;;;;;5.97;2.40;;;8.50;99.90;;;;;;5052926;28;20048;-71
2022/10/10 03:15:50;;;;;;;3.15;2.33;;;8.60;99.90;;;;;;5053514;28;20048;-71
2022/10/10 03:18:16;;;;;;;4.80;2.50;;;8.50;99.90;;;;;;5052463;28;20055;-71
2022/10/10 03:20:44;;;;;;;4.88;2.55;;;8.50;99.90;;;;;;5053322;28;20052;-71
2022/10/10 03:23:10;;;;;;;3.83;2.25;;;8.90;99.90;;;;;;5052929;28;20064;-71
2022/10/10 03:25:39;;;;;;;4.22;2.38;;;8.60;99.90;;;;;;5053229;28;20045;-71
2022/10/10 03:28:05;;;;;;;3.20;2.25;;;8.70;99.90;;;;;;5052209;28;20527;-71
2022/10/10 03:30:31;;;;;;;3.72;2.47;;;8.60;99.90;;;;;;5052243;28;20073;-71
2022/10/10 03:32:57;;;;;;;4.47;2.50;;;8.50;99.90;;;;;;5051686;28;20481;-71
2022/10/10 03:35:22;;;;;;;4.18;2.20;;;8.90;99.90;;;;;;5053251;28;20049;-71
2022/10/10 03:37:48;;;;;;;3.47;2.38;;;8.50;99.90;;;;;;5053429;28;20111;-71
2022/10/10 03:40:14;;;;;;;4.10;2.30;;;8.60;99.90;;;;;;5053603;28;20045;-71
2022/10/10 03:42:39;;;;;;;4.82;2.40;;;8.50;99.90;;;;;;5053135;28;20049;-71
2022/10/10 03:45:05;;;;;;;3.15;2.60;;;9.10;99.90;;;;;;5052996;28;20052;-71
2022/10/10 03:47:31;;;;;;;3.35;2.40;;;8.40;99.90;;;;;;5053286;28;20041;-71
2022/10/10 03:49:57;;;;;;;3.25;2.10;;;8.60;99.90;;;;;;5053121;28;20068;-71
2022/10/10 03:52:22;;;;;;;4.07;2.50;;;8.40;99.90;;;;;;5035180;28;20044;-71
2022/10/10 03:54:48;;;;;;;4.53;2.45;;;8.40;99.90;;;;;;5052163;28;20060;-71
2022/10/10 03:57:14;;;;;;;4.45;2.75;;;8.30;99.90;;;;;;5052844;28;20052;-71
2022/10/10 03:59:39;;;;;;;5.70;3.78;;;8.50;99.90;;;;;;5052186;28;20059;-71
2022/10/10 04:02:05;;;;;;;6.63;2.45;;;8.70;99.90;;;;;;5051626;28;20045;-71
2022/10/10 04:04:31;;;;;;;4.82;2.88;;;8.50;99.90;;;;;;5053058;28;20408;-72
2022/10/10 04:06:57;;;;;;;3.53;2.75;;;8.60;99.90;;;;;;5051406;28;20049;-71
2022/10/10 04:09:22;;;;;;;2.90;2.47;;;8.80;99.90;;;;;;5052749;28;20052;-71
2022/10/10 04:11:48;;;;;;;5.32;2.75;;;8.30;99.90;;;;;;5052074;28;20083;-71
2022/10/10 04:14:14;;;;;;;3.75;2.83;;;8.50;99.90;;;;;;5051965;28;20049;-71
2022/10/10 04:16:39;;;;;;;6.55;2.75;;;8.50;99.90;;;;;;5052170;28;20060;-71
2022/10/10 04:19:05;;;;;;;3.78;2.63;;;8.40;99.90;;;;;;5051589;28;20049;-71
2022/10/10 04:21:31;;;;;;;3.42;2.97;;;8.60;99.90;;;;;;5052625;28;20055;-71
2022/10/10 04:23:56;;;;;;;4.78;2.60;;;8.50;99.90;;;;;;5052927;28;20556;-71
2022/10/10 04:26:22;;;;;;;3.03;2.33;;;8.30;99.90;;;;;;5052815;28;20095;-71
2022/10/10 04:28:48;;;;;;;3.85;2.45;;;8.30;99.90;;;;;;5052815;28;20045;-71
2022/10/10 04:31:14;;;;;;;6.28;2.75;;;8.30;99.90;;;;;;5051686;28;20047;-71
2022/10/10 04:33:39;;;;;;;5.10;3.10;;;8.40;99.90;;;;;;5051460;28;20045;-71
2022/10/10 04:36:05;;;;;;;4.40;3.20;;;8.60;99.90;;;;;;5056262;28;20052;-71
2022/10/10 04:38:31;;;;;;;4.20;2.58;;;8.30;99.90;;;;;;5055389;28;20041;-71
2022/10/10 04:40:57;;;;;;;3.22;2.80;;;8.30;99.90;;;;;;5055463;28;20516;-71
2022/10/10 04:43:22;;;;;;;2.92;2.70;;;8.60;99.90;;;;;;5056432;28;20171;-71
2022/10/10 04:45:48;;;;;;;3.38;2.55;;;8.80;99.90;;;;;;5056188;28;20045;-71
2022/10/10 04:48:14;;;;;;;4.22;2.90;;;8.20;99.90;;;;;;5056115;28;20045;-71
2022/10/10 04:50:40;;;;;;;4.25;2.67;;;8.20;99.90;;;;;;5056058;28;20048;-71
2022/10/10 04:53:06;;;;;;;4.95;3.00;;;8.40;99.90;;;;;;5055133;28;20405;-71
2022/10/10 04:55:31;;;;;;;4.20;2.90;;;8.10;99.90;;;;;;5056182;28;20045;-71
2022/10/10 04:57:57;;;;;;;5.22;3.00;;;8.50;99.90;;;;;;5056140;28;20618;-71
2022/10/10 05:00:23;;;;;;;3.47;2.55;;;8.40;99.90;;;;;;5038434;28;20432;-71
2022/10/10 05:02:49;;;;;;;6.03;3.05;;;8.60;99.90;;;;;;5054316;28;20075;-71
2022/10/10 05:05:14;;;;;;;5.30;2.88;;;8.10;99.90;;;;;;5054764;28;20083;-71
2022/10/10 05:07:40;;;;;;;6.05;3.22;;;8.10;99.90;;;;;;5054849;28;20053;-71
2022/10/10 05:10:06;;;;;;;4.50;3.08;;;8.20;99.90;;;;;;5055779;28;20049;-71
2022/10/10 05:12:32;;;;;;;4.43;2.90;;;8.00;99.90;;;;;;5055916;28;20067;-71
2022/10/10 05:14:58;;;;;;;4.32;3.03;;;8.00;99.90;;;;;;5056026;28;20124;-71
2022/10/10 05:17:24;;;;;;;6.13;2.83;;;8.00;99.90;;;;;;5054514;28;20087;-71
2022/10/10 05:19:50;;;;;;;5.80;3.47;;;8.30;99.90;;;;;;5054516;28;20059;-71
2022/10/10 05:22:16;;;;;;;4.95;3.30;;;8.40;99.90;;;;;;5071448;28;20056;-71
2022/10/10 05:24:42;;;;;;;3.33;2.95;;;8.20;99.90;;;;;;5056048;28;20045;-71
2022/10/10 05:27:07;;;;;;;5.47;3.10;;;8.00;99.90;;;;;;5054418;28;20048;-71
2022/10/10 05:29:33;;;;;;;4.15;3.05;;;8.30;99.90;;;;;;5055426;28;20075;-71
2022/10/10 05:31:59;;;;;;;5.63;3.33;;;8.20;99.90;;;;;;5054959;28;20048;-71
2022/10/10 05:34:25;;;;;;;4.57;3.38;;;8.50;99.90;;;;;;5054236;28;20059;-71
2022/10/10 05:36:50;;;;;;;5.38;2.95;;;7.90;99.90;;;;;;5055491;28;20053;-71
2022/10/10 05:39:16;;;;;;;4.82;3.13;;;8.10;99.90;;;;;;5037971;28;20389;-71
2022/10/10 05:41:42;;;;;;;5.03;3.15;;;8.70;99.90;;;;;;5055718;28;20045;-71
2022/10/10 05:44:09;;;;;;;8.25;3.33;;;8.50;99.90;;;;;;5055309;28;20378;-71
2022/10/10 05:46:34;;;;;;;4.38;3.38;;;8.30;99.90;;;;;;5054384;28;20103;-71
2022/10/10 05:49:00;;;;;;;4.03;3.15;;;8.10;99.90;;;;;;5053716;28;20049;-71
2022/10/10 05:51:25;;;;;;;5.63;3.42;;;8.10;99.90;;;;;;5055348;28;20464;-71
2022/10/10 05:53:51;;;;;;;4.80;3.42;;;8.40;99.90;;;;;;5055491;28;20053;-71
2022/10/10 05:56:17;;;;;;;4.90;3.42;;;7.90;99.90;;;;;;5053947;28;20084;-71
2022/10/10 05:58:43;;;;;;;4.40;3.13;;;8.00;99.90;;;;;;5053995;28;20053;-71
2022/10/10 06:01:09;;;;;;;3.60;3.22;;;8.20;99.90;;;;;;5054990;28;20081;-71
2022/10/10 06:03:35;;;;;;;5.60;3.75;;;8.10;99.90;;;;;;5054296;28;20088;-71
2022/10/10 06:06:01;;;;;;;4.32;2.88;;;7.90;99.90;;;;;;5055242;28;20040;-72
2022/10/10 06:08:29;;;;;;;5.57;3.20;;;7.80;99.90;;;;;;5054788;28;20045;-71
2022/10/10 06:11:04;;;;;;;5.35;3.42;;;7.90;99.90;;;;;;5070626;28;20131;-71
2022/10/10 06:13:30;;;;;;;5.80;3.40;;;8.30;99.90;;;;;;5054790;28;20469;-71
2022/10/10 06:15:57;;;;;;;5.43;3.45;;;8.20;99.90;;;;;;5054556;28;20084;-71
2022/10/10 06:18:22;;;;;;;5.38;3.85;;;8.20;99.90;;;;;;5036821;28;20077;-71
2022/10/10 06:20:48;;;;;;;4.43;3.42;;;8.00;99.90;;;;;;5054728;28;20083;-71
2022/10/10 06:23:14;;;;;;;4.85;3.22;;;8.00;99.90;;;;;;5054377;28;20129;-71
2022/10/10 06:25:39;;;;;;;5.32;3.28;;;8.50;99.90;;;;;;5054500;28;20136;-71
2022/10/10 06:28:05;;;;;;;6.68;3.78;;;8.20;99.90;;;;;;5054319;28;20056;-71
2022/10/10 06:30:33;;;;;;;5.18;3.28;;;8.20;99.90;;;;;;5054224;28;20037;-73
2022/10/10 06:32:59;;;;;;;5.55;3.50;;;8.00;99.90;;;;;;5053699;28;20092;-71
2022/10/10 06:35:25;;;;;;;5.35;3.83;;;8.30;99.90;;;;;;5054331;28;20076;-71
2022/10/10 06:37:50;;;;;;;9.57;3.97;;;8.10;99.90;;;;;;5053422;28;20056;-71
2022/10/10 06:40:16;;;;;;;5.00;3.58;;;8.40;99.90;;;;;;5054276;28;20067;-71
2022/10/10 06:42:42;;;;;;;6.50;4.07;;;8.10;99.90;;;;;;5036551;28;20055;-71
2022/10/10 06:45:08;;;;;;;5.97;3.60;;;8.70;99.90;;;;;;5053872;28;20049;-71
2022/10/10 06:47:34;;;;;;;5.63;3.40;;;8.20;99.90;;;;;;5036556;28;20044;-71
2022/10/10 06:49:59;;;;;;;4.43;3.35;;;8.20;99.90;;;;;;5036134;28;20047;-71
2022/10/10 06:52:25;;;;;;;5.10;3.50;;;8.40;99.90;;;;;;5052732;28;20084;-71
2022/10/10 06:54:51;;;;;;;4.35;3.28;;;8.40;99.90;;;;;;5036377;28;20120;-71
2022/10/10 06:57:16;;;;;;;4.35;3.58;;;8.60;99.90;;;;;;5069478;28;20143;-71
2022/10/10 06:59:42;;;;;;;5.10;3.95;;;8.40;99.90;;;;;;5052864;28;20063;-72
2022/10/10 07:02:12;;;;;;;7.53;3.72;;;8.50;99.90;;;;;;5052311;28;20045;-71
2022/10/10 07:04:38;;;;;;;5.82;3.78;;;8.30;99.90;;;;;;5069667;28;20064;-71
2022/10/10 07:07:03;;;;;;;6.00;4.10;;;8.50;99.90;;;;;;5054029;28;20476;-70
2022/10/10 07:09:29;;;;;;;8.65;3.80;;;8.50;99.90;;;;;;5053559;28;20048;-71
2022/10/10 07:11:55;;;;;;;5.65;3.80;;;8.40;99.90;;;;;;5053624;28;20429;-71
2022/10/10 07:14:20;;;;;;;6.15;3.67;;;8.60;99.90;;;;;;5053398;28;20400;-71
2022/10/10 07:16:46;;;;;;;7.05;3.72;;;8.70;99.90;;;;;;5052377;28;20087;-71
2022/10/10 07:19:12;;;;;;;8.98;5.15;;;9.20;99.90;;;;;;5053248;28;20074;-71
2022/10/10 07:21:37;;;;;;;5.75;4.30;;;8.70;99.90;;;;;;5053567;28;20090;-71
2022/10/10 07:24:03;;;;;;;6.72;3.95;;;9.20;99.90;;;;;;5052429;28;20520;-71
2022/10/10 07:26:30;;;;;;;6.65;3.58;;;8.90;99.90;;;;;;5052252;28;20067;-71
2022/10/10 07:28:56;;;;;;;5.05;3.58;;;8.90;99.90;;;;;;5051984;28;20041;-71
2022/10/10 07:31:22;;;;;;;4.97;3.60;;;8.90;99.90;;;;;;5035652;28;20055;-71
2022/10/10 07:33:48;;;;;;;6.60;4.13;;;9.20;99.90;;;;;;5052979;28;20404;-71
2022/10/10 07:36:14;;;;;;;4.93;3.70;;;9.10;99.90;;;;;;5053424;28;20052;-71
2022/10/10 07:38:40;;;;;;;5.20;3.75;;;9.30;99.90;;;;;;5053374;28;20428;-71
2022/10/10 07:41:08;;;;;;;6.30;3.65;;;9.80;99.90;;;;;;5053267;28;20049;-71
2022/10/10 07:43:34;;;;;;;4.85;4.05;;;9.20;99.90;;;;;;5052130;28;20091;-71
2022/10/10 07:46:00;;;;;;;6.00;3.90;;;9.30;99.90;;;;;;5051865;28;20056;-70
2022/10/10 07:48:25;;;;;;;7.75;4.13;;;9.40;99.90;;;;;;5053191;28;20049;-71
2022/10/10 07:50:51;;;;;;;8.25;4.25;;;9.40;99.90;;;;;;5052181;28;20397;-71
2022/10/10 07:53:17;;;;;;;5.70;3.92;;;9.50;99.90;;;;;;5051937;28;20072;-71
2022/10/10 07:55:43;;;;;;;6.68;4.22;;;9.60;99.90;;;;;;5051838;28;20187;-70
2022/10/10 07:58:13;;;;;;;6.80;4.80;;;9.60;99.90;;;;;;5051774;28;20454;-70
2022/10/10 08:00:40;;;;;;;5.57;4.03;;;9.60;99.90;;;;;;5035089;28;20041;-70
2022/10/10 08:03:10;;;;;;;5.18;3.95;;;9.70;99.90;;;;;;5018919;28;20477;-71
2022/10/10 08:05:41;;;;;;;7.28;4.80;;;9.60;99.90;;;;;;5035521;28;20080;-71
2022/10/10 08:08:07;;;;;;;6.15;4.13;;;10.00;99.90;;;;;;5051531;28;20049;-70
2022/10/10 08:10:33;;;;;;;5.80;4.20;;;9.90;99.90;;;;;;5055488;28;20085;-71
2022/10/10 08:12:59;;;;;;;8.27;4.75;;;10.00;99.90;;;;;;5056698;28;20084;-72
2022/10/10 08:15:25;;;;;;;6.22;4.10;;;10.00;99.90;;;;;;5055968;28;20044;-70
2022/10/10 08:17:50;;;;;;;8.55;4.55;;;10.20;99.90;;;;;;5056953;28;20520;-71
2022/10/10 08:20:16;;;;;;;7.13;4.00;;;10.10;99.90;;;;;;5056810;28;20109;-71
2022/10/10 08:22:42;;;;;;;6.10;4.10;;;10.10;99.90;;;;;;5056725;28;20515;-71
2022/10/10 08:25:08;;;;;;;6.43;4.70;;;10.10;99.90;;;;;;5056822;28;20132;-71
2022/10/10 08:27:34;;;;;;;5.82;4.43;;;10.20;99.90;;;;;;5056540;28;20055;-71
2022/10/10 08:30:00;;;;;;;6.88;4.38;;;10.30;99.90;;;;;;5039150;28;20081;-70
2022/10/10 08:32:25;;;;;;;7.10;4.43;;;10.40;99.90;;;;;;5038567;28;20049;-71
2022/10/10 08:34:51;;;;;;;6.55;4.80;;;10.60;99.90;;;;;;5056768;28;20041;-70
2022/10/10 08:37:17;;;;;;;6.32;4.32;;;10.40;99.90;;;;;;5056586;28;20045;-71
2022/10/10 08:39:42;;;;;;;6.45;4.47;;;10.50;99.90;;;;;;5055285;28;20041;-70
2022/10/10 08:42:14;;;;;;;6.57;4.03;;;10.60;99.90;;;;;;5056297;28;20045;-70
2022/10/10 08:44:50;;;;;;;4.85;4.00;;;10.70;99.90;;;;;;5056594;28;20048;-71
2022/10/10 08:47:37;;;;;;;6.80;4.25;;;10.60;99.90;;;;;;5056440;28;20051;-71
2022/10/10 08:50:17;;;;;;;8.48;4.65;;;10.70;99.90;;;;;;5055288;28;20056;-71
2022/10/10 08:52:52;;;;;;;7.22;4.53;;;10.70;99.90;;;;;;5056144;28;20052;-71
2022/10/10 08:55:37;;;;;;;5.95;4.70;;;10.70;99.90;;;;;;5055353;28;20056;-70
2022/10/10 08:58:19;;;;;;;7.93;4.70;;;10.80;99.90;;;;;;5072090;28;20053;-71
2022/10/10 09:00:58;;;;;;;6.32;5.13;;;10.80;99.90;;;;;;5055183;28;20049;-70
2022/10/10 09:03:33;;;;;;;7.20;4.75;;;10.90;99.90;;;;;;5071745;28;20408;-70
2022/10/10 09:06:24;;;;;;;7.28;4.97;;;11.00;99.90;;;;;;5055168;28;20049;-70
2022/10/10 09:09:27;;;;;;;6.95;4.25;;;10.90;99.90;;;;;;5056421;28;20080;-70
2022/10/10 09:11:53;;;;;;;4.88;4.30;;;10.90;99.90;;;;;;5054951;28;20081;-70
2022/10/10 09:14:28;;;;;;;5.93;4.20;;;11.00;99.90;;;;;;5055917;28;20531;-70
2022/10/10 09:17:03;;;;;;;7.57;4.72;;;11.00;99.90;;;;;;5055949;28;20052;-70
2022/10/10 09:19:37;;;;;;;8.60;5.53;;;11.00;99.90;;;;;;5055779;28;20045;-71
2022/10/10 09:22:10;;;;;;;8.45;5.18;;;11.10;99.90;;;;;;5058587;28;20060;-71
2022/10/10 09:25:05;;;;;;;8.37;5.47;;;11.10;99.90;;;;;;5066573;28;20397;-72
2022/10/10 09:27:36;;;;;;;6.60;5.07;;;11.20;99.90;;;;;;5064446;28;20692;-70
2022/10/10 09:30:14;;;;;;;8.60;4.90;;;11.40;99.90;;;;;;5061515;28;20045;-71
2022/10/10 09:32:44;;;;;;;10.55;4.75;;;11.40;99.90;;;;;;5063506;28;20507;-71
2022/10/10 09:35:21;;;;;;;6.65;4.72;;;11.40;99.90;;;;;;5063745;28;20147;-71
2022/10/10 09:38:09;;;;;;;5.88;4.68;;;11.40;99.90;;;;;;5062345;28;20049;-70
2022/10/10 09:40:52;;;;;;;6.28;4.72;;;11.60;99.90;;;;;;5065039;28;20072;-71
2022/10/10 09:43:19;;;;;;;7.80;4.95;;;11.50;99.90;;;;;;5064590;28;20044;-71
2022/10/10 09:45:51;;;;;;;9.95;5.38;;;11.60;99.90;;;;;;5063342;28;20057;-71
2022/10/10 09:48:19;;;;;;;7.18;5.32;;;11.70;99.90;;;;;;5063670;28;20536;-71
2022/10/10 09:50:44;;;;;;;8.50;5.28;;;11.70;99.90;;;;;;5065408;28;20123;-71
2022/10/10 09:53:15;;;;;;;9.15;5.45;;;11.90;99.90;;;;;;5064138;28;20530;-71
2022/10/10 09:55:43;;;;;;;8.45;5.25;;;12.60;99.90;;;;;;5061164;28;20041;-71
2022/10/10 09:58:46;;;;;;;6.25;5.05;;;12.00;99.90;;;;;;5063534;28;20052;-71
2022/10/10 10:01:23;;;;;;;8.00;5.75;;;12.00;99.90;;;;;;4976815;28;20043;-71
2022/10/10 10:04:13;;;;;;;8.45;5.38;;;12.10;99.90;;;;;;5067053;28;20059;-70
2022/10/10 10:06:43;;;;;;;9.20;5.63;;;12.20;99.90;;;;;;5065007;28;20131;-70
2022/10/10 10:09:15;;;;;;;7.03;5.40;;;12.20;99.90;;;;;;5064421;28;20084;-70
2022/10/10 10:11:41;;;;;;;10.98;5.65;;;12.20;99.90;;;;;;5060443;28;20131;-71
2022/10/10 10:14:26;;;;;;;8.43;5.68;;;12.60;99.90;;;;;;5063627;28;20094;-71
2022/10/10 10:17:04;;;;;;;9.75;5.63;;;;;;;;;;5063877;28;20452;-71
2022/10/10 10:19:37;;;;;;;10.10;6.28;;;12.30;99.90;;;;;;5045437;28;20416;-70
2022/10/10 10:22:03;;;;;;;8.57;5.68;;;12.30;99.90;;;;;;5059650;28;20440;-71
2022/10/10 10:24:38;;;;;;;8.85;6.03;;;12.30;99.90;;;;;;5062673;28;20040;-71
2022/10/10 10:27:17;;;;;;;8.75;5.80;;;12.40;99.90;;;;;;5060066;28;20396;-71
2022/10/10 10:29:58;;;;;;;7.93;5.90;;;12.40;99.90;;;;;;5059754;28;20405;-71
2022/10/10 10:32:42;;;;;;;10.23;6.20;;;12.40;99.90;;;;;;5060108;28;20094;-70
2022/10/10 10:35:27;;;;;;;7.40;5.90;;;12.40;99.90;;;;;;5058869;28;20452;-71
2022/10/10 10:38:22;;;;;;;8.20;5.97;;;12.50;99.90;;;;;;5059664;28;20167;-72
2022/10/10 10:41:10;;;;;;;13.55;7.68;;;12.60;99.90;;;;;;5062044;28;20388;-71
2022/10/10 10:44:31;;;;;;;8.52;6.10;;;12.70;99.90;;;;;;5062206;28;20060;-71
2022/10/10 10:47:42;;;;;;;8.48;6.10;;;12.60;99.90;;;;;;5052424;28;20052;-71
2022/10/10 10:50:42;;;;;;;10.15;6.00;;;12.80;99.90;;;;;;5050703;28;20088;-70
2022/10/10 10:53:25;;;;;;;9.30;5.60;;;13.00;99.90;;;;;;5061001;28;20515;-70
2022/10/10 10:56:18;;;;;;;7.22;5.13;;;13.00;99.90;;;;;;5062269;28;20040;-70
2022/10/10 10:59:06;;;;;;;11.13;7.15;;;13.00;99.90;;;;;;5059599;28;20041;-70
2022/10/10 11:01:38;;;;;;;8.30;5.78;;;13.10;99.90;;;;;;5078349;28;20040;-70
2022/10/10 11:04:28;;;;;;;9.10;6.00;;;13.30;99.90;;;;;;5060297;28;20049;-70
2022/10/10 11:07:09;;;;;;;10.43;5.68;;;13.30;99.90;;;;;;5061756;28;20057;-70
2022/10/10 11:09:42;;;;;;;9.82;5.63;;;13.50;99.90;;;;;;5063344;28;20084;-70
2022/10/10 11:13:03;;;;;;;9.02;5.88;;;13.50;99.90;;;;;;5043956;28;20451;-71
2022/10/10 11:15:42;;;;;;;7.15;4.85;;;13.50;99.90;;;;;;5019461;28;20061;-70
2022/10/10 11:18:20;;;;;;;8.65;4.68;;;13.70;99.90;;;;;;5057847;28;20052;-71
2022/10/10 11:20:52;;;;;;;6.72;5.05;;;13.80;99.90;;;;;;5060695;28;20041;-70
2022/10/10 11:23:27;;;;;;;6.82;4.72;;;13.80;99.90;;;;;;5062192;28;20108;-72
2022/10/10 11:26:01;;;;;;;6.72;4.88;;;14.00;99.90;;;;;;5062680;28;20396;-72
2022/10/10 11:28:32;;;;;;;7.65;5.25;;;14.00;99.90;;;;;;5060963;28;20052;-72
2022/10/10 11:31:04;;;;;;;7.03;4.43;;;14.00;99.90;;;;;;5060980;28;20044;-72
2022/10/10 11:33:34;;;;;;;7.80;4.32;;;14.10;99.90;;;;;;5062550;28;20048;-72
2022/10/10 11:36:17;;;;;;;8.50;4.78;;;14.00;99.90;;;;;;5046519;28;20119;-72
2022/10/10 11:39:20;;;;;;;7.28;4.80;;;14.20;99.90;;;;;;5059892;28;20052;-72
2022/10/10 11:42:06;;;;;;;6.85;4.45;;;14.30;99.90;;;;;;5042775;28;20053;-72
2022/10/10 11:44:38;;;;;;;8.02;5.05;;;14.30;99.90;;;;;;5061406;28;20094;-72
2022/10/10 11:47:13;;;;;;;8.02;4.90;;;14.30;99.90;;;;;;5028586;28;20098;-71
2022/10/10 11:49:56;;;;;;;7.40;4.72;;;14.30;99.90;;;;;;5061588;28;20045;-72
2022/10/10 11:53:00;;;;;;;6.72;5.20;;;14.20;99.90;;;;;;5059437;28;20439;-72
2022/10/10 11:56:01;;;;;;;7.70;4.63;;;14.10;99.90;;;;;;5041237;28;20059;-73
2022/10/10 11:58:54;;;;;;;8.60;5.03;;;14.20;99.90;;;;;;5038503;28;20056;-72
2022/10/10 12:01:35;;;;;;;7.38;3.85;;;14.10;99.90;;;;;;5061423;28;20057;-73
2022/10/10 12:04:01;;;;;;;7.25;4.05;;;14.00;99.90;;;;;;5063488;28;20115;-72
2022/10/10 12:06:46;;;;;;;8.43;4.82;;;14.00;99.90;;;;;;5061267;28;20060;-73
2022/10/10 12:09:32;;;;;;;7.25;4.63;;;13.90;99.90;;;;;;5058579;28;20569;-72
2022/10/10 12:12:06;;;;;;;8.02;4.95;;;13.90;99.90;;;;;;5062052;28;20041;-72
2022/10/10 12:14:36;;;;;;;7.93;4.88;;;13.90;99.90;;;;;;5062073;28;20045;-72
2022/10/10 12:17:02;;;;;;;5.90;4.60;;;13.90;99.90;;;;;;5058248;28;20056;-72
2022/10/10 12:19:28;;;;;;;8.63;4.45;;;13.90;99.90;;;;;;5052783;28;20033;-73
2022/10/10 12:21:56;;;;;;;10.82;5.35;;;13.80;99.90;;;;;;5058881;28;20071;-72
2022/10/10 12:24:23;;;;;;;9.52;4.80;;;13.80;99.90;;;;;;5058000;28;20043;-72
2022/10/10 12:26:52;;;;;;;7.93;4.70;;;13.70;99.90;;;;;;5061242;28;20076;-72
2022/10/10 12:29:42;;;;;;;7.45;4.00;;;13.90;99.90;;;;;;5058694;28;20047;-72
2022/10/10 12:32:14;;;;;;;7.10;4.38;;;13.70;99.90;;;;;;5060628;28;20048;-71
2022/10/10 12:34:42;;;;;;;7.07;4.13;;;13.70;99.90;;;;;;5042677;28;20076;-71
2022/10/10 12:37:29;;;;;;;7.82;4.15;;;13.70;99.90;;;;;;5059615;28;20076;-71
2022/10/10 12:40:21;;;;;;;6.30;3.80;;;13.80;99.90;;;;;;5057497;28;20048;-71
2022/10/10 12:42:47;;;;;;;6.72;3.97;;;13.70;99.90;;;;;;5059921;28;20488;-72
2022/10/10 12:45:28;;;;;;;9.32;4.15;;;13.60;99.90;;;;;;5060673;28;20045;-71
2022/10/10 12:47:55;;;;;;;7.63;3.72;;;13.70;99.90;;;;;;5075477;28;20094;-71
2022/10/10 12:50:42;;;;;;;8.13;3.90;;;13.60;99.90;;;;;;5060400;28;20070;-72
2022/10/10 12:53:11;;;;;;;8.30;4.50;;;13.60;99.90;;;;;;5062965;28;20048;-71
2022/10/10 12:55:41;;;;;;;8.65;4.95;;;13.80;99.90;;;;;;5062925;28;20091;-71
2022/10/10 12:58:14;;;;;;;10.20;5.38;;;13.80;99.90;;;;;;5063780;28;20512;-72
2022/10/10 13:00:43;;;;;;;8.73;5.30;;;13.70;99.90;;;;;;5065541;28;20094;-71
2022/10/10 13:03:31;;;;;;;7.68;4.78;;;13.70;99.90;;;;;;5065225;28;20400;-71
2022/10/10 13:06:04;;;;;;;10.35;5.03;;;13.60;99.90;;;;;;5062122;28;20409;-71
2022/10/10 13:08:30;;;;;;;9.88;5.18;;;13.70;99.90;;;;;;5063505;28;20045;-71
2022/10/10 13:11:07;;;;;;;7.75;5.68;;;13.80;99.90;;;;;;5064801;28;20040;-71
2022/10/10 13:13:33;;;;;;;7.60;5.30;;;13.80;99.90;;;;;;5062622;28;20041;-72
2022/10/10 13:16:11;;;;;;;9.82;6.20;;;13.60;99.90;;;;;;5065507;28;20055;-70